Terminal Aerodrome Forecast
Issued by NWS

Home | Current Version | Previous Version | Text Only | Print | Product List | Glossary On
Versions: 1 2 3 4 5 6 7 8 9 10 11 12 13 14 15 16 17 18 19 20 21 22 23 24 25 26 27 28 29
000
FTUS41 KBTV 052321
TAFPBG
TAF
KPBG 052321Z 0600/0624 00000KT P6SM FEW050
      TEMPO 0607/0611 3SM BR SCT001
     FM061200 14009KT P6SM FEW050=

USA.gov is the U.S. government's official web portal to all federal, state and local government web resources and services.